createdAt,value
2023-04-25T00:00:49.745Z,8.92
2023-04-25T00:01:53.980Z,8.91
2023-04-25T00:02:58.379Z,8.92
2023-04-25T00:04:02.658Z,8.92
2023-04-25T00:05:06.924Z,8.91
2023-04-25T00:06:11.134Z,8.90
2023-04-25T00:07:15.500Z,8.93
2023-04-25T00:08:19.707Z,8.94
2023-04-25T00:09:23.937Z,8.94
2023-04-25T00:10:28.168Z,8.93
2023-04-25T00:11:32.419Z,8.94
2023-04-25T00:12:36.698Z,8.95
2023-04-25T00:13:40.927Z,8.95
2023-04-25T00:14:45.108Z,9.00
2023-04-25T00:15:49.474Z,8.99
2023-04-25T00:16:53.669Z,9.00
2023-04-25T00:17:57.963Z,9.02
2023-04-25T00:19:02.166Z,9.04
2023-04-25T00:20:06.467Z,9.05
2023-04-25T00:21:13.686Z,9.04
2023-04-25T00:22:17.074Z,9.06
2023-04-25T00:23:21.428Z,9.08
2023-04-25T00:24:25.711Z,9.09
2023-04-25T00:25:29.839Z,9.09
2023-04-25T00:26:34.048Z,9.11
2023-04-25T00:27:38.422Z,9.13
2023-04-25T00:28:42.697Z,9.12
2023-04-25T00:29:46.940Z,9.12
2023-04-25T00:30:51.219Z,9.13
2023-04-25T00:31:55.482Z,9.15
2023-04-25T00:32:59.747Z,9.14
2023-04-25T00:34:10.053Z,9.16
2023-04-25T00:35:12.894Z,9.16
2023-04-25T00:36:17.087Z,9.17
2023-04-25T00:37:21.381Z,9.20
2023-04-25T00:38:25.675Z,9.21
2023-04-25T00:39:29.896Z,9.20
2023-04-25T00:40:34.204Z,9.21
2023-04-25T00:41:38.561Z,9.24
2023-04-25T00:42:42.688Z,9.25
2023-04-25T00:43:47.010Z,9.28
2023-04-25T00:44:51.258Z,9.29
2023-04-25T00:45:55.639Z,9.27
2023-04-25T00:46:59.999Z,9.26
2023-04-25T00:48:04.231Z,9.31
2023-04-25T00:49:08.496Z,9.30
2023-04-25T00:50:12.820Z,9.30
2023-04-25T00:51:17.059Z,9.28
2023-04-25T00:52:21.331Z,9.27
2023-04-25T00:53:25.615Z,9.26
2023-04-25T00:54:29.951Z,9.28
2023-04-25T00:55:34.222Z,9.30
2023-04-25T00:56:38.460Z,9.32
2023-04-25T00:57:42.729Z,9.32
2023-04-25T00:59:01.048Z,9.34
2023-04-25T01:00:04.109Z,9.32
2023-04-25T01:01:08.419Z,9.33
2023-04-25T01:02:12.650Z,9.34
2023-04-25T01:03:16.971Z,9.36
2023-04-25T01:04:21.292Z,9.34
2023-04-25T01:05:25.394Z,9.35
2023-04-25T01:06:29.730Z,9.35
2023-04-25T01:07:33.905Z,9.34
2023-04-25T01:08:38.192Z,9.34
2023-04-25T01:09:43.492Z,9.37
2023-04-25T01:10:47.311Z,9.39
2023-04-25T01:11:51.637Z,9.38
2023-04-25T01:24:26.682Z,9.42
2023-04-25T01:25:30.514Z,9.42
2023-04-25T01:26:34.673Z,9.41
2023-04-25T01:27:38.967Z,9.40
2023-04-25T01:28:46.219Z,9.40
2023-04-25T01:29:49.637Z,9.41
2023-04-25T01:30:53.849Z,9.40
2023-04-25T01:31:58.147Z,9.40
2023-04-25T01:33:02.422Z,9.41
2023-04-25T01:34:06.733Z,9.39
2023-04-25T01:35:10.973Z,9.39
2023-04-25T01:36:15.239Z,9.39
2023-04-25T01:37:19.603Z,9.39
2023-04-25T01:38:23.828Z,9.40
2023-04-25T01:39:42.094Z,9.39
2023-04-25T01:40:45.697Z,9.40
2023-04-25T01:41:49.489Z,9.40
2023-04-25T01:42:53.844Z,9.38
2023-04-25T01:43:58.153Z,9.38
2023-04-25T01:45:02.477Z,9.39
2023-04-25T01:46:06.759Z,9.39
2023-04-25T01:47:10.979Z,9.40
2023-04-25T01:48:15.261Z,9.42
2023-04-25T01:49:19.574Z,9.40
2023-04-25T01:50:23.834Z,9.40
2023-04-25T01:51:28.068Z,9.39
2023-04-25T01:52:32.370Z,9.39
2023-04-25T01:53:36.610Z,9.39
2023-04-25T01:54:40.973Z,9.40
2023-04-25T01:55:45.253Z,9.37
2023-04-25T01:56:49.513Z,9.37
2023-04-25T01:57:53.711Z,9.35
2023-04-25T01:58:57.971Z,9.35
2023-04-25T02:00:02.246Z,9.34
2023-04-25T02:01:06.425Z,9.34
2023-04-25T02:02:10.738Z,9.34
2023-04-25T02:03:15.295Z,9.32
2023-04-25T02:04:19.514Z,9.32
2023-04-25T02:05:23.542Z,9.33
2023-04-25T02:06:27.746Z,9.33
2023-04-25T02:07:32.074Z,9.32
2023-04-25T02:08:36.398Z,9.31
2023-04-25T02:09:40.609Z,9.30
2023-04-25T02:10:44.888Z,9.31
2023-04-25T02:11:49.178Z,9.32
2023-04-25T02:12:53.530Z,9.32
2023-04-25T02:13:57.801Z,9.32
2023-04-25T02:15:02.025Z,9.33
2023-04-25T02:16:06.432Z,9.33
2023-04-25T02:17:10.678Z,9.34
2023-04-25T02:18:14.948Z,9.35
2023-04-25T02:19:19.169Z,9.35
2023-04-25T02:20:23.520Z,9.33
2023-04-25T02:21:27.823Z,9.32
2023-04-25T02:22:32.021Z,9.33
2023-04-25T02:23:36.381Z,9.33
2023-04-25T02:24:40.689Z,9.36
2023-04-25T02:25:45.017Z,9.36
2023-04-25T02:26:49.206Z,9.36
2023-04-25T02:27:53.473Z,9.38
2023-04-25T02:28:57.769Z,9.40
2023-04-25T02:30:01.993Z,9.39
2023-04-25T02:31:06.247Z,9.38
2023-04-25T02:32:10.465Z,9.39
2023-04-25T02:33:14.849Z,9.36
2023-04-25T02:34:19.044Z,9.35
2023-04-25T02:35:26.234Z,9.35
2023-04-25T02:36:29.594Z,9.34
2023-04-25T02:37:33.949Z,9.34
2023-04-25T02:38:38.277Z,9.35
2023-04-25T02:39:42.476Z,9.36
2023-04-25T02:40:46.795Z,9.35
2023-04-25T02:41:51.066Z,9.37
2023-04-25T02:42:55.154Z,9.38
2023-04-25T02:43:59.483Z,9.36
2023-04-25T02:45:03.861Z,9.35
2023-04-25T02:46:08.196Z,9.35
2023-04-25T02:47:12.346Z,9.34
2023-04-25T02:48:16.613Z,9.35
2023-04-25T02:49:20.861Z,9.36
2023-04-25T02:50:25.092Z,9.37
2023-04-25T02:51:29.414Z,9.38
2023-04-25T02:52:47.709Z,9.38
2023-04-25T02:53:51.085Z,9.39
2023-04-25T02:54:54.841Z,9.40
2023-04-25T02:56:05.115Z,9.41
2023-04-25T02:57:08.077Z,9.41
2023-04-25T02:58:12.340Z,9.43
2023-04-25T02:59:16.579Z,9.42
2023-04-25T03:00:20.929Z,9.41
2023-04-25T03:01:25.204Z,9.40
2023-04-25T03:02:29.537Z,9.41
2023-04-25T03:03:33.710Z,9.42
2023-04-25T03:04:38.078Z,9.40
2023-04-25T03:05:42.358Z,9.40
2023-04-25T03:06:46.573Z,9.39
2023-04-25T03:07:50.918Z,9.39
2023-04-25T03:08:55.158Z,9.36
2023-04-25T03:09:59.538Z,9.36
2023-04-25T03:11:06.822Z,9.37
2023-04-25T03:12:10.127Z,9.36
2023-04-25T03:13:14.380Z,9.33
2023-04-25T03:14:18.628Z,9.36
2023-04-25T03:15:23.012Z,9.37
2023-04-25T03:16:27.259Z,9.38
2023-04-25T03:17:31.533Z,9.39
2023-04-25T03:18:35.723Z,9.39
2023-04-25T03:19:40.020Z,9.37
2023-04-25T03:20:44.481Z,9.37
2023-04-25T03:21:48.594Z,9.37
2023-04-25T03:22:52.924Z,9.37
2023-04-25T03:23:57.216Z,9.36
2023-04-25T03:25:01.421Z,9.35
2023-04-25T03:26:05.785Z,9.35
2023-04-25T03:27:10.086Z,9.33
2023-04-25T03:28:14.405Z,9.31
2023-04-25T03:29:18.680Z,9.28
2023-04-25T03:30:22.959Z,9.23
2023-04-25T03:31:27.154Z,9.19
2023-04-25T03:32:31.479Z,9.13
2023-04-25T03:33:35.699Z,9.06
2023-04-25T03:34:40.065Z,9.01
2023-04-25T03:35:44.271Z,8.94
2023-04-25T03:36:48.537Z,8.90
2023-04-25T03:37:52.766Z,8.85
2023-04-25T03:38:58.021Z,8.80
2023-04-25T03:40:15.910Z,8.76
2023-04-25T03:41:18.885Z,8.72
2023-04-25T03:42:23.108Z,8.67
2023-04-25T03:43:27.454Z,8.62
2023-04-25T03:44:31.632Z,8.59
2023-04-25T03:45:35.901Z,8.55
2023-04-25T03:46:40.168Z,8.52
2023-04-25T03:47:44.589Z,8.46
2023-04-25T03:48:48.702Z,8.42
2023-04-25T03:49:52.944Z,8.39
2023-04-25T03:50:57.196Z,8.37
2023-04-25T03:52:01.513Z,8.32
2023-04-25T03:53:19.762Z,8.30
2023-04-25T03:54:22.986Z,8.29
2023-04-25T03:55:27.166Z,8.30
2023-04-25T03:56:31.403Z,8.29
2023-04-25T03:57:35.634Z,8.29
2023-04-25T03:58:39.912Z,8.25
2023-04-25T03:59:44.156Z,8.21
2023-04-25T04:00:48.379Z,8.19
2023-04-25T04:01:52.755Z,8.18
2023-04-25T04:02:57.072Z,8.16
2023-04-25T04:04:01.537Z,8.16
2023-04-25T04:05:05.626Z,8.12
2023-04-25T04:06:09.831Z,8.08
2023-04-25T04:07:14.061Z,8.05
2023-04-25T04:08:18.341Z,8.03
2023-04-25T04:09:22.598Z,8.01
2023-04-25T04:10:26.833Z,7.97
2023-04-25T04:11:31.178Z,7.96
2023-04-25T04:12:35.435Z,7.91
2023-04-25T04:13:39.665Z,7.88
2023-04-25T04:14:43.981Z,7.86
2023-04-25T04:15:48.213Z,7.85
2023-04-25T04:16:52.570Z,7.76
2023-04-25T04:18:02.847Z,7.69
2023-04-25T04:19:05.750Z,7.68
2023-04-25T04:20:09.928Z,7.65
2023-04-25T04:21:14.157Z,7.64
2023-04-25T04:22:18.276Z,7.65
2023-04-25T04:23:22.584Z,7.67
2023-04-25T04:24:26.809Z,7.65
2023-04-25T04:25:31.066Z,7.64
2023-04-25T04:26:35.272Z,7.64
2023-04-25T04:27:39.508Z,7.62
2023-04-25T04:28:43.707Z,7.59
2023-04-25T04:29:47.932Z,7.56
2023-04-25T04:30:52.279Z,7.52
2023-04-25T04:31:56.632Z,7.51
2023-04-25T04:33:00.679Z,7.48
2023-04-25T04:34:04.981Z,7.44
2023-04-25T04:35:09.206Z,7.42
2023-04-25T04:36:13.424Z,7.42
2023-04-25T04:37:17.664Z,7.41
2023-04-25T04:38:21.881Z,7.40
2023-04-25T04:39:26.150Z,7.36
2023-04-25T04:40:30.455Z,7.32
2023-04-25T04:41:34.708Z,7.29
2023-04-25T04:42:38.977Z,7.30
2023-04-25T04:43:43.236Z,7.32
2023-04-25T04:44:47.509Z,7.31
2023-04-25T04:45:51.818Z,7.27
2023-04-25T04:46:56.060Z,7.23
2023-04-25T04:48:00.306Z,7.22
2023-04-25T04:49:04.603Z,7.19
2023-04-25T04:50:08.912Z,7.17
2023-04-25T04:51:13.152Z,7.11
2023-04-25T04:52:17.365Z,7.07
2023-04-25T04:53:21.667Z,7.00
2023-04-25T04:54:25.901Z,6.97
2023-04-25T04:55:30.081Z,6.95
2023-04-25T04:56:34.336Z,6.92
2023-04-25T04:57:38.572Z,6.89
2023-04-25T04:58:42.824Z,6.86
2023-04-25T04:59:47.244Z,6.85
2023-04-25T05:00:51.495Z,6.79
2023-04-25T05:01:55.672Z,6.77
2023-04-25T05:03:00.068Z,6.79
2023-04-25T05:04:04.451Z,6.79
2023-04-25T05:05:08.478Z,6.79
2023-04-25T05:06:12.915Z,6.81
2023-04-25T05:07:17.057Z,6.81
2023-04-25T05:08:21.351Z,6.81
2023-04-25T05:09:25.604Z,6.78
2023-04-25T05:10:30.759Z,6.71
2023-04-25T05:11:34.616Z,6.65
2023-04-25T05:12:38.880Z,6.61
2023-04-25T05:13:43.221Z,6.61
2023-04-25T05:14:47.484Z,6.61
2023-04-25T05:15:51.740Z,6.61
2023-04-25T05:16:55.993Z,6.61
2023-04-25T05:18:00.300Z,6.56
2023-04-25T05:19:04.523Z,6.55
2023-04-25T05:20:08.874Z,6.47
2023-04-25T05:21:13.061Z,6.43
2023-04-25T05:22:17.324Z,6.42
2023-04-25T05:23:21.711Z,6.42
2023-04-25T05:24:25.916Z,6.45
2023-04-25T05:25:30.212Z,6.45
2023-04-25T05:26:34.481Z,6.46
2023-04-25T05:27:38.815Z,6.46
2023-04-25T05:28:42.999Z,6.49
2023-04-25T05:29:47.235Z,6.49
2023-04-25T05:30:51.472Z,6.53
2023-04-25T05:31:55.781Z,6.56
2023-04-25T05:32:59.957Z,6.57
2023-04-25T05:34:04.300Z,6.57
2023-04-25T05:35:08.556Z,6.57
2023-04-25T05:36:12.826Z,6.59
2023-04-25T05:37:16.977Z,6.60
2023-04-25T05:38:21.278Z,6.63
2023-04-25T05:39:25.474Z,6.64
2023-04-25T05:40:29.771Z,6.66
2023-04-25T05:41:34.234Z,6.64
2023-04-25T05:42:38.429Z,6.67
2023-04-25T05:43:42.626Z,6.67
2023-04-25T05:44:46.945Z,6.71
2023-04-25T05:45:51.178Z,6.69
2023-04-25T05:46:55.492Z,6.67
2023-04-25T05:48:02.732Z,6.62
2023-04-25T05:49:05.982Z,6.63
2023-04-25T05:50:10.420Z,6.68
2023-04-25T05:51:14.608Z,6.73
2023-04-25T05:52:21.897Z,6.75
2023-04-25T05:53:25.141Z,6.79
2023-04-25T05:54:29.434Z,6.86
2023-04-25T05:55:33.646Z,6.96
2023-04-25T05:56:37.977Z,7.05
2023-04-25T05:57:42.193Z,7.13
2023-04-25T05:58:46.563Z,7.16
2023-04-25T05:59:50.815Z,7.28
2023-04-25T06:00:55.032Z,7.17
2023-04-25T06:01:59.401Z,7.05
2023-04-25T06:03:03.767Z,7.04
2023-04-25T06:04:08.132Z,7.08
2023-04-25T06:05:12.369Z,7.04
2023-04-25T06:06:16.410Z,6.97
2023-04-25T06:07:20.660Z,6.89
2023-04-25T06:08:24.898Z,6.82
2023-04-25T06:09:29.301Z,6.73
2023-04-25T06:10:33.544Z,6.71
2023-04-25T06:11:37.791Z,6.70
2023-04-25T06:12:42.146Z,6.68
2023-04-25T06:13:46.398Z,6.62
2023-04-25T06:14:50.641Z,6.65
2023-04-25T06:15:55.178Z,6.71
2023-04-25T06:16:59.312Z,6.70
2023-04-25T06:18:03.665Z,6.65
2023-04-25T06:19:07.846Z,6.64
2023-04-25T06:20:12.088Z,6.60
2023-04-25T06:21:16.375Z,6.59
2023-04-25T06:22:21.559Z,6.46
2023-04-25T06:23:25.562Z,6.45
2023-04-25T06:24:29.800Z,6.37
2023-04-25T06:25:34.091Z,6.35
2023-04-25T06:26:38.383Z,6.22
2023-04-25T06:27:43.491Z,6.15
2023-04-25T06:28:47.445Z,6.17
2023-04-25T06:29:51.639Z,6.18
2023-04-25T06:30:55.957Z,6.18
2023-04-25T06:32:00.168Z,6.16
2023-04-25T06:33:04.453Z,6.14
2023-04-25T06:34:08.672Z,6.21
2023-04-25T06:35:12.931Z,6.19
2023-04-25T06:36:17.177Z,6.18
2023-04-25T06:37:21.534Z,6.19
2023-04-25T06:38:25.730Z,6.22
2023-04-25T06:39:30.009Z,6.27
2023-04-25T06:40:34.253Z,6.30
2023-04-25T06:41:39.444Z,6.31
2023-04-25T06:42:43.305Z,6.23
2023-04-25T06:43:47.603Z,6.14
2023-04-25T06:44:51.955Z,6.07
2023-04-25T06:45:56.181Z,6.14
2023-04-25T06:47:00.495Z,6.21
2023-04-25T06:48:10.782Z,6.29
2023-04-25T06:49:13.566Z,6.40
2023-04-25T06:50:17.933Z,6.34
2023-04-25T06:51:24.182Z,6.21
2023-04-25T06:52:26.335Z,6.04
2023-04-25T06:53:30.607Z,5.82
2023-04-25T06:54:34.865Z,5.76
2023-04-25T06:55:39.281Z,5.67
2023-04-25T06:56:43.545Z,5.76
2023-04-25T06:57:47.788Z,5.82
2023-04-25T06:58:52.423Z,5.85
2023-04-25T06:59:56.404Z,5.79
2023-04-25T07:01:00.750Z,5.64
2023-04-25T07:02:04.907Z,5.52
2023-04-25T07:03:09.349Z,5.47
2023-04-25T07:04:27.701Z,5.51
2023-04-25T07:05:30.399Z,5.58
2023-04-25T07:06:34.590Z,5.50
2023-04-25T07:07:38.860Z,5.44
2023-04-25T07:08:43.122Z,5.47
2023-04-25T07:09:47.421Z,5.44
2023-04-25T07:10:51.633Z,5.41
2023-04-25T07:11:56.078Z,5.39
2023-04-25T07:13:14.285Z,5.33
2023-04-25T07:14:17.189Z,5.18
2023-04-25T07:15:21.387Z,5.17
2023-04-25T07:16:25.657Z,5.21
2023-04-25T07:17:29.948Z,5.19
2023-04-25T07:18:34.138Z,5.21
2023-04-25T07:19:38.403Z,5.20
2023-04-25T07:20:42.719Z,5.22
2023-04-25T07:21:47.091Z,5.22
2023-04-25T07:22:51.356Z,5.31
2023-04-25T07:23:55.487Z,5.28
2023-04-25T07:24:59.866Z,5.15
2023-04-25T07:26:04.139Z,5.19
2023-04-25T07:27:08.479Z,5.24
2023-04-25T07:28:12.702Z,5.17
2023-04-25T07:29:16.948Z,5.22
2023-04-25T07:30:21.225Z,5.31
2023-04-25T07:31:39.583Z,5.25
2023-04-25T07:32:42.599Z,5.28
2023-04-25T07:33:46.808Z,5.21
2023-04-25T07:34:51.026Z,5.20
2023-04-25T07:35:55.258Z,5.22
2023-04-25T07:36:59.546Z,5.19
2023-04-25T07:38:03.910Z,5.20
2023-04-25T07:39:08.130Z,5.13
2023-04-25T07:40:12.463Z,5.16
2023-04-25T07:41:16.628Z,5.27
2023-04-25T07:42:20.961Z,5.37
2023-04-25T07:43:25.350Z,5.47
2023-04-25T07:44:29.540Z,5.59
2023-04-25T07:45:33.879Z,5.63
2023-04-25T07:46:38.076Z,5.62
2023-04-25T07:47:42.373Z,5.54
2023-04-25T07:48:46.603Z,5.52
2023-04-25T07:49:50.886Z,5.57
2023-04-25T07:50:55.263Z,5.48
2023-04-25T07:51:59.459Z,5.43
2023-04-25T07:53:03.729Z,5.44
2023-04-25T07:54:07.992Z,5.43
2023-04-25T07:55:12.254Z,5.37
2023-04-25T07:56:16.574Z,5.40
2023-04-25T07:57:20.790Z,5.35
2023-04-25T07:58:25.163Z,5.19
2023-04-25T07:59:30.333Z,5.03
2023-04-25T08:00:33.699Z,4.98
2023-04-25T08:01:38.050Z,5.01
2023-04-25T08:02:42.350Z,4.97
2023-04-25T08:03:46.826Z,4.99
2023-04-25T08:04:51.109Z,4.99
2023-04-25T08:05:55.312Z,4.87
2023-04-25T08:06:59.333Z,4.87
2023-04-25T08:08:03.678Z,4.95
2023-04-25T08:09:07.974Z,4.97
2023-04-25T08:10:12.272Z,4.95
2023-04-25T08:11:16.655Z,5.00
2023-04-25T08:12:23.413Z,5.04
2023-04-25T08:13:25.094Z,5.02
2023-04-25T08:14:29.508Z,4.98
2023-04-25T08:15:33.762Z,4.95
2023-04-25T08:16:40.948Z,4.95
2023-04-25T08:17:44.332Z,4.99
2023-04-25T08:18:48.811Z,5.00
2023-04-25T08:19:52.811Z,4.95
2023-04-25T08:20:57.113Z,4.94
2023-04-25T08:22:01.397Z,4.97
2023-04-25T08:23:05.678Z,4.97
2023-04-25T08:24:09.940Z,5.03
2023-04-25T08:25:14.382Z,5.04
2023-04-25T08:26:18.576Z,5.00
2023-04-25T08:27:22.886Z,5.01
2023-04-25T08:28:27.196Z,5.11
2023-04-25T08:29:31.484Z,5.14
2023-04-25T08:30:35.818Z,5.21
2023-04-25T08:31:40.011Z,5.23
2023-04-25T08:32:44.306Z,5.16
2023-04-25T08:33:48.515Z,5.16
2023-04-25T08:34:52.889Z,5.13
2023-04-25T08:35:57.148Z,5.05
2023-04-25T08:37:01.446Z,5.03
2023-04-25T08:38:05.807Z,4.98
2023-04-25T08:39:09.936Z,4.91
2023-04-25T08:40:14.358Z,4.88
2023-04-25T08:41:18.568Z,4.87
2023-04-25T08:42:22.950Z,4.95
2023-04-25T08:43:27.192Z,5.02
2023-04-25T08:44:31.429Z,5.09
2023-04-25T08:45:35.740Z,5.14
2023-04-25T08:46:39.971Z,5.12
2023-04-25T08:47:44.150Z,5.11
2023-04-25T08:48:48.424Z,5.09
2023-04-25T08:49:52.591Z,4.93
2023-04-25T08:50:56.916Z,4.87
2023-04-25T08:52:04.174Z,4.81
2023-04-25T08:53:07.520Z,4.78
2023-04-25T08:54:35.005Z,4.81
2023-04-25T08:55:16.058Z,4.83
2023-04-25T08:56:20.306Z,4.81
2023-04-25T08:57:24.548Z,4.83
2023-04-25T08:58:28.769Z,4.87
2023-04-25T08:59:33.051Z,4.89
2023-04-25T09:00:37.301Z,4.97
2023-04-25T09:01:41.758Z,5.06
2023-04-25T09:02:46.096Z,5.16
2023-04-25T09:03:50.235Z,5.27
2023-04-25T09:04:54.426Z,5.38
2023-04-25T09:05:58.724Z,5.51
2023-04-25T09:07:02.919Z,5.66
2023-04-25T09:08:07.296Z,5.75
2023-04-25T09:09:11.533Z,5.88
2023-04-25T09:10:15.878Z,5.89
2023-04-25T09:11:21.602Z,5.96
2023-04-25T09:12:24.423Z,6.07
2023-04-25T09:13:28.734Z,6.06
2023-04-25T09:14:33.095Z,6.07
2023-04-25T09:15:37.248Z,6.03
2023-04-25T09:16:41.758Z,5.89
2023-04-25T09:17:45.836Z,5.69
2023-04-25T09:18:50.067Z,5.50
2023-04-25T09:19:54.348Z,5.32
2023-04-25T09:21:01.943Z,5.25
2023-04-25T09:22:05.965Z,5.14
2023-04-25T09:23:09.338Z,5.07
2023-04-25T09:24:13.669Z,4.97
2023-04-25T09:25:17.929Z,5.01
2023-04-25T09:26:22.131Z,5.10
2023-04-25T09:27:26.407Z,5.15
2023-04-25T09:28:31.167Z,5.06
2023-04-25T09:29:34.850Z,5.07
2023-04-25T09:30:39.252Z,5.02
2023-04-25T09:31:43.447Z,4.99
2023-04-25T09:32:48.002Z,5.02
2023-04-25T09:33:55.320Z,5.05
2023-04-25T09:34:56.389Z,5.08
2023-04-25T09:36:00.712Z,5.10
2023-04-25T09:37:04.862Z,5.13
2023-04-25T09:38:09.183Z,5.15
2023-04-25T09:39:13.280Z,5.20
2023-04-25T09:40:17.609Z,5.12
2023-04-25T09:41:21.792Z,5.13
2023-04-25T09:42:26.085Z,5.16
2023-04-25T09:43:30.445Z,5.21
2023-04-25T09:44:34.698Z,5.21
2023-04-25T09:45:38.974Z,5.18
2023-04-25T09:46:43.402Z,5.15
2023-04-25T09:47:47.546Z,5.10
2023-04-25T09:48:51.900Z,5.02
2023-04-25T09:49:56.119Z,4.95
2023-04-25T09:51:00.310Z,4.97
2023-04-25T09:52:04.577Z,4.96
2023-04-25T09:53:08.847Z,4.98
2023-04-25T09:54:13.117Z,4.94
2023-04-25T09:55:17.523Z,4.84
2023-04-25T09:56:21.717Z,4.87
2023-04-25T09:57:29.017Z,4.91
2023-04-25T09:58:33.309Z,4.91
2023-04-25T09:59:36.560Z,4.90
2023-04-25T10:00:40.802Z,4.87
2023-04-25T10:01:45.145Z,4.85
2023-04-25T10:02:49.697Z,4.82
2023-04-25T10:04:00.411Z,4.81
2023-04-25T10:05:02.790Z,4.78
2023-04-25T10:06:06.863Z,4.74
2023-04-25T10:07:11.110Z,4.75
2023-04-25T10:08:15.484Z,4.73
2023-04-25T10:09:19.743Z,4.74
2023-04-25T10:10:23.995Z,4.79
2023-04-25T10:11:28.257Z,4.86
2023-04-25T10:12:32.506Z,4.93
2023-04-25T10:13:36.778Z,4.95
2023-04-25T10:14:41.107Z,4.92
2023-04-25T10:15:45.239Z,4.87
2023-04-25T10:16:49.636Z,4.80
2023-04-25T10:17:53.859Z,4.76
2023-04-25T10:18:58.090Z,4.74
2023-04-25T10:20:02.364Z,4.72
2023-04-25T10:21:06.606Z,4.69
2023-04-25T10:22:10.872Z,4.68
2023-04-25T10:23:15.219Z,4.68
2023-04-25T10:24:19.473Z,4.73
2023-04-25T10:25:23.801Z,4.81
2023-04-25T10:26:29.550Z,4.88
2023-04-25T10:27:32.264Z,4.91
2023-04-25T10:28:36.666Z,4.93
2023-04-25T10:29:40.964Z,4.94
2023-04-25T10:30:45.171Z,4.96
2023-04-25T10:31:49.489Z,4.98
2023-04-25T10:32:53.718Z,5.02
2023-04-25T10:33:57.999Z,5.09
2023-04-25T10:35:02.335Z,5.13
2023-04-25T10:36:06.619Z,5.20
2023-04-25T10:37:10.779Z,5.35
2023-04-25T10:38:15.180Z,5.48
2023-04-25T10:39:19.472Z,5.45
2023-04-25T10:40:37.740Z,5.50
2023-04-25T10:41:40.799Z,5.55
2023-04-25T10:42:44.953Z,5.54
2023-04-25T10:43:49.398Z,5.52
2023-04-25T10:44:53.562Z,5.50
2023-04-25T10:45:57.789Z,5.53
2023-04-25T10:47:02.234Z,5.42
2023-04-25T10:48:06.389Z,5.38
2023-04-25T10:49:10.563Z,5.40
2023-04-25T10:50:14.904Z,5.32
2023-04-25T10:51:19.209Z,5.15
2023-04-25T10:52:23.437Z,5.08
2023-04-25T10:53:27.714Z,5.08
2023-04-25T10:54:31.967Z,5.05
2023-04-25T10:55:36.391Z,5.16
2023-04-25T10:56:40.787Z,5.14
2023-04-25T10:57:51.031Z,5.09
2023-04-25T10:58:54.267Z,5.08
2023-04-25T10:59:58.227Z,5.08
2023-04-25T11:01:02.562Z,4.99
2023-04-25T11:02:06.958Z,4.97
2023-04-25T11:03:11.172Z,4.99
2023-04-25T11:04:18.585Z,4.96
2023-04-25T11:05:21.659Z,4.92
2023-04-25T11:06:26.119Z,4.87
2023-04-25T11:07:30.343Z,4.77
2023-04-25T11:08:34.658Z,4.72
2023-04-25T11:09:38.925Z,4.66
2023-04-25T11:10:43.192Z,4.63
2023-04-25T11:11:47.527Z,4.62
2023-04-25T11:12:51.855Z,4.63
2023-04-25T11:13:56.086Z,4.65
2023-04-25T11:15:00.354Z,4.70
2023-04-25T11:16:13.113Z,4.77
2023-04-25T11:17:08.995Z,4.87
2023-04-25T11:18:13.178Z,4.87
2023-04-25T11:19:17.482Z,4.89
2023-04-25T11:20:21.732Z,4.88
2023-04-25T11:21:26.059Z,4.91
2023-04-25T11:22:30.401Z,4.76
2023-04-25T11:23:34.707Z,4.69
2023-04-25T11:24:38.928Z,4.76
2023-04-25T11:25:43.143Z,4.78
2023-04-25T11:26:47.442Z,4.79
2023-04-25T11:27:51.818Z,4.80
2023-04-25T11:28:56.023Z,4.77
2023-04-25T11:30:00.384Z,4.70
2023-04-25T11:31:04.600Z,4.69
2023-04-25T11:32:08.984Z,4.75
2023-04-25T11:33:13.247Z,4.78
2023-04-25T11:34:17.461Z,4.82
2023-04-25T11:35:21.800Z,4.85
2023-04-25T11:36:26.064Z,4.85
2023-04-25T11:37:30.290Z,4.87
2023-04-25T11:38:34.607Z,4.90
2023-04-25T11:39:38.784Z,4.99
2023-04-25T11:40:43.124Z,5.04
2023-04-25T11:41:47.629Z,5.08
2023-04-25T11:42:55.010Z,5.11
2023-04-25T11:43:56.415Z,5.24
2023-04-25T11:45:00.457Z,5.31
2023-04-25T11:46:04.835Z,5.36
2023-04-25T11:47:09.006Z,5.33
2023-04-25T11:48:13.300Z,5.30
2023-04-25T11:49:17.612Z,5.19
2023-04-25T11:50:21.891Z,5.03
2023-04-25T11:51:26.155Z,4.98
2023-04-25T11:52:30.422Z,4.94
2023-04-25T11:53:34.671Z,4.89
2023-04-25T11:54:38.970Z,4.85
2023-04-25T11:55:43.207Z,4.85
2023-04-25T11:56:47.607Z,4.88
2023-04-25T11:57:51.817Z,4.94
2023-04-25T11:58:56.102Z,4.99
2023-04-25T12:00:00.356Z,5.09
2023-04-25T12:01:04.631Z,5.11
2023-04-25T12:02:08.885Z,5.13
2023-04-25T12:03:13.242Z,5.14
2023-04-25T12:04:17.781Z,5.15
2023-04-25T12:05:32.096Z,5.11
2023-04-25T12:06:27.564Z,5.11
2023-04-25T12:07:30.414Z,5.05
2023-04-25T12:08:34.730Z,5.04
2023-04-25T12:09:38.974Z,4.99
2023-04-25T12:10:46.382Z,5.03
2023-04-25T12:11:49.679Z,5.13
2023-04-25T12:12:54.037Z,5.27
2023-04-25T12:13:58.296Z,5.33
2023-04-25T12:15:02.565Z,5.32
2023-04-25T12:16:06.864Z,5.19
2023-04-25T12:17:11.076Z,5.16
2023-04-25T12:18:15.430Z,5.17
2023-04-25T12:19:19.658Z,5.18
2023-04-25T12:20:24.041Z,5.18
2023-04-25T12:21:28.355Z,5.26
2023-04-25T12:22:32.603Z,5.33
2023-04-25T12:23:36.954Z,5.41
2023-04-25T12:24:41.195Z,5.56
2023-04-25T12:25:45.530Z,5.77
2023-04-25T12:26:49.878Z,5.99
2023-04-25T12:27:54.135Z,6.16
2023-04-25T12:28:58.410Z,6.19
2023-04-25T12:30:02.677Z,6.24
2023-04-25T12:31:07.142Z,6.42
2023-04-25T12:32:11.367Z,6.52
2023-04-25T12:33:15.692Z,6.61
2023-04-25T12:34:19.998Z,6.64
2023-04-25T12:35:24.246Z,6.82
2023-04-25T12:36:28.572Z,7.02
2023-04-25T12:37:32.877Z,7.14
2023-04-25T12:38:37.166Z,7.13
2023-04-25T12:39:41.512Z,7.17
2023-04-25T12:40:45.897Z,7.21
2023-04-25T12:41:50.156Z,7.22
2023-04-25T12:42:54.598Z,7.09
2023-04-25T12:43:58.698Z,6.88
2023-04-25T12:45:03.023Z,6.80
2023-04-25T12:46:07.366Z,6.68
2023-04-25T12:47:11.789Z,6.46
2023-04-25T12:48:15.995Z,6.29
2023-04-25T12:49:20.275Z,6.08
2023-04-25T12:50:24.631Z,6.07
2023-04-25T12:51:28.947Z,5.93
2023-04-25T12:52:33.223Z,5.74
2023-04-25T12:53:37.579Z,5.72
2023-04-25T12:54:41.825Z,5.74
2023-04-25T12:55:46.167Z,5.75
2023-04-25T12:56:50.375Z,5.74
2023-04-25T12:57:54.624Z,5.67
2023-04-25T12:58:59.021Z,5.59
2023-04-25T13:00:03.219Z,5.54
2023-04-25T13:01:07.538Z,5.56
2023-04-25T13:02:11.890Z,5.55
2023-04-25T13:03:16.287Z,5.55
2023-04-25T13:04:20.555Z,5.57
2023-04-25T13:05:24.610Z,5.61
2023-04-25T13:06:29.013Z,5.68
2023-04-25T13:07:34.136Z,5.76
2023-04-25T13:08:37.595Z,5.81
2023-04-25T13:09:41.853Z,5.73
2023-04-25T13:10:46.133Z,5.67
2023-04-25T13:11:50.342Z,5.66
2023-04-25T13:12:54.716Z,5.61
2023-04-25T13:13:59.028Z,5.55
2023-04-25T13:15:03.319Z,5.53
2023-04-25T13:16:07.706Z,5.51
2023-04-25T13:17:11.938Z,5.44
2023-04-25T13:18:16.247Z,5.39
2023-04-25T13:19:20.448Z,5.31
2023-04-25T13:20:24.718Z,5.23
2023-04-25T13:21:29.016Z,5.18
2023-04-25T13:22:33.312Z,5.17
2023-04-25T13:23:37.622Z,5.16
2023-04-25T13:24:41.844Z,5.17
2023-04-25T13:25:46.125Z,5.18
2023-04-25T13:26:50.398Z,5.21
2023-04-25T13:27:54.716Z,5.27
2023-04-25T13:28:59.054Z,5.33
2023-04-25T13:30:03.412Z,5.38
2023-04-25T13:31:07.660Z,5.38
2023-04-25T13:32:11.999Z,5.40
2023-04-25T13:33:30.312Z,5.47
2023-04-25T13:34:33.398Z,5.48
2023-04-25T13:35:37.634Z,5.47
2023-04-25T13:36:41.950Z,5.50
2023-04-25T13:37:46.190Z,5.53
2023-04-25T13:38:50.587Z,5.60
2023-04-25T13:39:54.730Z,5.61
2023-04-25T13:40:59.054Z,5.70
2023-04-25T13:42:03.300Z,5.73
2023-04-25T13:43:07.669Z,5.79
2023-04-25T13:44:11.898Z,5.88
2023-04-25T13:45:16.177Z,5.95
2023-04-25T13:46:40.964Z,5.96
2023-04-25T13:47:24.910Z,6.03
2023-04-25T13:48:29.101Z,6.07
2023-04-25T13:49:33.408Z,6.09
2023-04-25T13:50:37.780Z,6.08
2023-04-25T13:51:42.037Z,6.01
2023-04-25T13:52:46.318Z,5.93
2023-04-25T13:53:50.797Z,5.93
2023-04-25T13:54:54.836Z,5.93
2023-04-25T13:55:59.190Z,5.98
2023-04-25T13:57:03.402Z,5.85
2023-04-25T13:58:07.656Z,5.80
2023-04-25T13:59:11.938Z,5.72
2023-04-25T14:00:16.156Z,5.65
2023-04-25T14:01:20.678Z,5.59
2023-04-25T14:02:24.976Z,5.56
2023-04-25T14:03:29.235Z,5.49
2023-04-25T14:04:33.413Z,5.57
2023-04-25T14:05:37.660Z,5.68
2023-04-25T14:06:42.026Z,5.78
2023-04-25T14:07:46.246Z,5.87
2023-04-25T14:08:50.523Z,5.89
2023-04-25T14:09:54.911Z,5.85
2023-04-25T14:10:59.231Z,5.86
2023-04-25T14:12:03.457Z,5.89
2023-04-25T14:13:08.927Z,5.91
2023-04-25T14:14:12.044Z,5.94
2023-04-25T14:15:16.362Z,5.99
2023-04-25T14:16:20.745Z,6.06
2023-04-25T14:17:24.947Z,6.10
2023-04-25T14:18:29.271Z,6.04
2023-04-25T14:19:33.542Z,5.93
2023-04-25T14:20:37.785Z,5.92
2023-04-25T14:21:43.512Z,5.91
2023-04-25T14:22:46.367Z,5.86
2023-04-25T14:23:54.164Z,5.80
2023-04-25T14:24:57.173Z,5.77
2023-04-25T14:26:01.454Z,5.78
2023-04-25T14:27:05.751Z,5.81
2023-04-25T14:28:09.993Z,5.80
2023-04-25T14:29:14.289Z,5.73
2023-04-25T14:30:18.721Z,5.72